createdAt,value
2022-11-24T00:01:20.668Z,84.96
2022-11-24T00:03:56.630Z,84.67
2022-11-24T00:06:24.296Z,85.87
2022-11-24T00:08:51.353Z,86.93
2022-11-24T00:11:29.550Z,87.14
2022-11-24T00:13:57.344Z,87.21
2022-11-24T00:16:26.554Z,88.48
2022-11-24T00:18:55.461Z,91.93
2022-11-24T00:21:23.017Z,89.38
2022-11-24T00:23:50.092Z,89.30
2022-11-24T00:26:18.011Z,90.80
2022-11-24T00:28:46.717Z,89.84
2022-11-24T00:31:25.432Z,88.25
2022-11-24T00:33:55.163Z,85.62
2022-11-24T00:36:24.088Z,85.26
2022-11-24T00:38:59.119Z,85.42
2022-11-24T00:41:27.828Z,86.14
2022-11-24T00:43:55.244Z,86.20
2022-11-24T00:46:23.045Z,84.30
2022-11-24T00:48:50.633Z,86.35
2022-11-24T00:51:19.303Z,89.58
2022-11-24T00:53:46.233Z,87.06
2022-11-24T00:56:13.617Z,87.56
2022-11-24T00:58:40.627Z,86.55
2022-11-24T01:01:11.137Z,87.83
2022-11-24T01:03:37.913Z,89.80
2022-11-24T01:06:11.132Z,91.04
2022-11-24T01:08:39.423Z,92.18
2022-11-24T01:11:24.435Z,93.74
2022-11-24T01:13:57.950Z,93.05
2022-11-24T01:16:26.278Z,92.80
2022-11-24T01:18:53.219Z,94.08
2022-11-24T01:21:20.904Z,95.17
2022-11-24T01:23:48.085Z,93.08
2022-11-24T01:26:19.366Z,92.39
2022-11-24T01:28:47.811Z,92.81
2022-11-24T01:31:15.989Z,92.84
2022-11-24T01:33:42.874Z,93.98
2022-11-24T01:36:09.422Z,94.53
2022-11-24T01:38:35.877Z,93.88
2022-11-24T01:41:18.943Z,92.46
2022-11-24T01:43:46.433Z,91.42
2022-11-24T01:46:30.641Z,90.24
2022-11-24T01:49:18.268Z,90.37
2022-11-24T01:52:04.500Z,89.29
2022-11-24T01:54:38.371Z,89.06
2022-11-24T01:57:19.552Z,88.14
2022-11-24T01:59:50.853Z,87.19
2022-11-24T02:02:19.374Z,86.56
2022-11-24T02:04:47.780Z,87.51
2022-11-24T02:07:15.034Z,87.63
2022-11-24T02:09:59.245Z,87.45
2022-11-24T02:12:27.517Z,88.86
2022-11-24T02:14:55.696Z,86.97
2022-11-24T02:17:22.289Z,86.93
2022-11-24T02:19:58.311Z,87.19
2022-11-24T02:22:56.817Z,88.41
2022-11-24T02:25:42.020Z,91.08
2022-11-24T02:28:17.422Z,90.46
2022-11-24T02:30:44.686Z,89.61
2022-11-24T02:33:12.850Z,88.54
2022-11-24T02:35:39.502Z,88.69
2022-11-24T02:38:05.937Z,86.13
2022-11-24T02:40:33.217Z,85.42
2022-11-24T02:43:12.796Z,85.22
2022-11-24T02:45:39.727Z,85.66
2022-11-24T02:48:06.516Z,84.95
2022-11-24T02:50:32.958Z,83.35
2022-11-24T02:52:59.404Z,82.72
2022-11-24T02:55:25.833Z,82.13
2022-11-24T02:57:52.286Z,84.55
2022-11-24T03:00:18.877Z,85.60
2022-11-24T03:02:45.411Z,86.23
2022-11-24T03:05:13.366Z,85.12
2022-11-24T03:07:41.584Z,86.79
2022-11-24T03:10:08.559Z,89.12
2022-11-24T03:12:37.381Z,90.11
2022-11-24T03:15:04.838Z,90.31
2022-11-24T03:17:31.357Z,91.30
2022-11-24T03:20:01.518Z,89.86
2022-11-24T03:22:30.915Z,88.57
2022-11-24T03:24:57.387Z,85.96
2022-11-24T03:27:23.864Z,86.01
2022-11-24T03:29:50.357Z,84.78
2022-11-24T03:32:16.794Z,82.99
2022-11-24T03:34:43.263Z,82.53
2022-11-24T03:37:09.817Z,81.65
2022-11-24T03:39:36.306Z,80.41
2022-11-24T03:42:02.845Z,80.84
2022-11-24T03:44:29.279Z,79.81
2022-11-24T03:46:55.737Z,78.83
2022-11-24T03:49:22.188Z,78.62
2022-11-24T03:51:48.659Z,78.88
2022-11-24T03:54:15.140Z,80.73
2022-11-24T03:56:41.640Z,79.51
2022-11-24T03:59:08.108Z,78.82
2022-11-24T04:01:34.710Z,77.85
2022-11-24T04:04:01.236Z,77.79
2022-11-24T04:06:27.693Z,78.50
2022-11-24T04:08:54.130Z,77.80
2022-11-24T04:11:20.565Z,78.37
2022-11-24T04:14:13.207Z,81.25
2022-11-24T04:16:50.959Z,82.70
2022-11-24T04:19:17.545Z,81.25
2022-11-24T04:21:44.005Z,83.13
2022-11-24T04:24:10.553Z,81.73
2022-11-24T04:26:37.006Z,81.85
2022-11-24T04:29:03.543Z,82.50
2022-11-24T04:31:30.009Z,81.84
2022-11-24T04:33:56.520Z,82.99
2022-11-24T04:36:23.027Z,84.09
2022-11-24T04:39:19.709Z,81.72
2022-11-24T04:41:38.968Z,82.09
2022-11-24T04:44:05.411Z,82.13
2022-11-24T04:46:31.882Z,80.87
2022-11-24T04:48:58.377Z,81.25
2022-11-24T04:51:24.867Z,81.95
2022-11-24T04:53:51.426Z,83.64
2022-11-24T04:56:17.915Z,82.70
2022-11-24T04:58:44.373Z,84.17
2022-11-24T05:01:10.858Z,82.96
2022-11-24T05:03:37.316Z,81.71
2022-11-24T05:06:03.996Z,80.71
2022-11-24T05:08:30.443Z,80.10
2022-11-24T05:10:56.938Z,80.44
2022-11-24T05:13:23.378Z,79.77
2022-11-24T05:15:49.894Z,80.27
2022-11-24T05:18:16.383Z,79.68
2022-11-24T05:20:43.225Z,80.17
2022-11-24T05:23:09.912Z,79.88
2022-11-24T05:25:36.672Z,81.93
2022-11-24T05:28:05.727Z,82.09
2022-11-24T05:30:32.540Z,82.33
2022-11-24T05:32:59.069Z,82.57
2022-11-24T05:35:25.526Z,82.05
2022-11-24T05:37:52.036Z,83.11
2022-11-24T05:40:18.500Z,80.84
2022-11-24T05:42:47.734Z,80.75
2022-11-24T05:45:18.623Z,80.85
2022-11-24T05:47:45.908Z,79.38
2022-11-24T05:50:15.048Z,80.13
2022-11-24T05:52:41.573Z,81.36
2022-11-24T05:55:09.469Z,81.96
2022-11-24T05:57:35.975Z,81.94
2022-11-24T06:00:05.290Z,82.75
2022-11-24T06:02:31.833Z,84.01
2022-11-24T06:04:58.383Z,85.43
2022-11-24T06:07:24.882Z,84.52
2022-11-24T06:09:51.379Z,83.94
2022-11-24T06:12:17.974Z,83.37
2022-11-24T06:14:44.496Z,81.91
2022-11-24T06:17:11.988Z,81.85
2022-11-24T06:19:41.943Z,83.43
2022-11-24T06:22:08.883Z,84.16
2022-11-24T06:24:35.683Z,84.48
2022-11-24T06:27:02.317Z,84.88
2022-11-24T06:29:28.748Z,83.78
2022-11-24T06:31:55.271Z,84.49
2022-11-24T06:34:21.843Z,83.92
2022-11-24T06:36:48.403Z,84.44
2022-11-24T06:39:14.972Z,82.48
2022-11-24T06:41:41.500Z,83.11
2022-11-24T06:44:07.984Z,84.62
2022-11-24T06:46:34.488Z,82.52
2022-11-24T06:49:00.939Z,82.03
2022-11-24T06:51:27.588Z,84.58
2022-11-24T06:53:54.026Z,83.58
2022-11-24T06:56:22.024Z,85.40
2022-11-24T06:58:50.758Z,82.82
2022-11-24T07:01:28.415Z,83.94
2022-11-24T07:03:56.556Z,85.25
2022-11-24T07:06:25.323Z,85.14
2022-11-24T07:08:52.797Z,86.10
2022-11-24T07:11:22.632Z,84.67
2022-11-24T07:13:53.685Z,84.54
2022-11-24T07:16:25.378Z,85.42
2022-11-24T07:18:53.575Z,83.21
2022-11-24T07:21:22.363Z,82.98
2022-11-24T07:23:50.573Z,81.57
2022-11-24T07:26:20.176Z,79.72
2022-11-24T07:28:47.188Z,78.41
2022-11-24T07:31:16.391Z,79.86
2022-11-24T07:33:42.874Z,78.11
2022-11-24T07:36:09.665Z,77.83
2022-11-24T07:38:36.171Z,78.44
2022-11-24T07:41:04.844Z,77.54
2022-11-24T07:43:33.016Z,77.94
2022-11-24T07:46:00.288Z,76.15
2022-11-24T07:48:27.060Z,75.82
2022-11-24T07:50:56.116Z,76.21
2022-11-24T07:53:22.915Z,78.23
2022-11-24T07:55:56.673Z,78.88
2022-11-24T07:58:26.425Z,78.19
2022-11-24T08:00:56.160Z,76.95
2022-11-24T08:03:23.503Z,77.38
2022-11-24T08:08:43.468Z,75.15
2022-11-24T08:11:12.876Z,74.59
2022-11-24T08:13:40.313Z,75.91
2022-11-24T08:16:09.552Z,75.81
2022-11-24T08:18:38.847Z,75.00
2022-11-24T08:21:06.523Z,75.96
2022-11-24T08:23:33.940Z,76.44
2022-11-24T08:26:05.463Z,77.00
2022-11-24T08:28:32.994Z,75.99
2022-11-24T08:31:08.643Z,76.84
2022-11-24T08:33:35.744Z,76.69
2022-11-24T08:36:07.257Z,76.65
2022-11-24T08:38:34.240Z,75.09
2022-11-24T08:41:18.901Z,75.36
2022-11-24T08:43:45.405Z,76.14
2022-11-24T08:46:15.774Z,77.41
2022-11-24T08:48:43.314Z,79.13
2022-11-24T08:51:12.770Z,79.40
2022-11-24T08:53:40.721Z,79.19
2022-11-24T08:56:09.401Z,79.40
2022-11-24T08:58:37.411Z,79.40
2022-11-24T09:01:12.227Z,79.96
2022-11-24T09:03:43.373Z,77.54
2022-11-24T09:06:12.985Z,78.03
2022-11-24T09:08:39.612Z,75.75
2022-11-24T09:11:12.529Z,74.91
2022-11-24T09:13:40.132Z,74.00
2022-11-24T09:16:08.507Z,73.77
2022-11-24T09:18:35.157Z,73.14
2022-11-24T09:21:11.989Z,74.09
2022-11-24T09:23:38.844Z,74.06
2022-11-24T09:26:11.141Z,74.08
2022-11-24T09:28:39.825Z,74.51
2022-11-24T09:31:10.104Z,73.23
2022-11-24T09:33:37.627Z,70.72
2022-11-24T09:36:05.720Z,70.59
2022-11-24T09:38:32.345Z,71.92
2022-11-24T09:41:17.278Z,70.58
2022-11-24T09:44:17.716Z,72.13
2022-11-24T09:46:58.242Z,71.67
2022-11-24T09:49:37.940Z,71.17
2022-11-24T09:52:14.305Z,69.73
2022-11-24T09:54:58.122Z,69.13
2022-11-24T09:57:32.740Z,68.89
2022-11-24T10:00:13.065Z,67.86
2022-11-24T10:02:39.586Z,68.07
2022-11-24T10:05:06.995Z,67.63
2022-11-24T10:08:02.468Z,65.80
2022-11-24T10:10:48.855Z,65.10
2022-11-24T10:13:31.293Z,63.70
2022-11-24T10:16:13.751Z,62.84
2022-11-24T10:19:07.588Z,63.51
2022-11-24T10:21:51.187Z,62.94
2022-11-24T10:24:36.201Z,61.57
2022-11-24T10:27:13.649Z,60.42
2022-11-24T10:29:41.606Z,59.95
2022-11-24T10:32:19.321Z,59.14
2022-11-24T10:34:49.585Z,59.91
2022-11-24T10:37:21.747Z,60.02
2022-11-24T10:40:17.172Z,59.70
2022-11-24T10:42:55.480Z,58.71
2022-11-24T10:45:22.813Z,58.52
2022-11-24T10:47:49.947Z,58.93
2022-11-24T10:50:21.525Z,59.97
2022-11-24T10:53:14.499Z,58.93
2022-11-24T10:55:56.981Z,59.37
2022-11-24T10:58:25.084Z,59.82
2022-11-24T11:00:51.612Z,59.88
2022-11-24T11:03:26.472Z,59.75
2022-11-24T11:06:03.036Z,60.22
2022-11-24T11:08:33.955Z,59.78
2022-11-24T11:11:19.903Z,60.55
2022-11-24T11:13:49.644Z,61.53
2022-11-24T11:16:26.118Z,61.38
2022-11-24T11:18:53.419Z,61.28
2022-11-24T11:21:33.831Z,59.98
2022-11-24T11:24:03.834Z,58.51
2022-11-24T11:26:36.488Z,59.92
2022-11-24T11:34:51.916Z,59.92
2022-11-24T11:37:20.433Z,59.58
2022-11-24T11:39:49.988Z,59.19
2022-11-24T11:43:00.643Z,58.32
2022-11-24T11:45:26.127Z,58.00
2022-11-24T11:48:00.595Z,57.97
2022-11-24T11:51:06.500Z,60.24
2022-11-24T11:53:45.183Z,61.05
2022-11-24T11:56:25.665Z,59.99
2022-11-24T11:59:10.595Z,60.32
2022-11-24T12:02:11.388Z,60.27
2022-11-24T12:04:47.058Z,62.22
2022-11-24T12:07:29.986Z,62.05
2022-11-24T12:10:14.842Z,60.24
2022-11-24T12:12:41.234Z,60.92
2022-11-24T12:15:29.676Z,58.31
2022-11-24T12:18:33.512Z,57.99
2022-11-24T12:21:35.483Z,58.30
2022-11-24T12:24:18.863Z,55.98
2022-11-24T12:27:13.398Z,55.43
2022-11-24T12:30:04.985Z,53.88
2022-11-24T12:33:02.455Z,54.20
2022-11-24T12:35:49.100Z,53.26
2022-11-24T12:38:50.500Z,51.81
2022-11-24T12:41:46.283Z,51.70
2022-11-24T12:44:46.908Z,52.20
2022-11-24T12:47:13.367Z,52.49
2022-11-24T12:50:17.707Z,51.69
2022-11-24T12:52:55.578Z,51.00
2022-11-24T12:55:27.545Z,49.70
2022-11-24T12:58:14.224Z,50.31
2022-11-24T13:00:56.769Z,50.06
2022-11-24T13:03:46.001Z,49.34
2022-11-24T13:06:32.730Z,48.02
2022-11-24T13:09:10.290Z,48.87
2022-11-24T13:12:12.249Z,47.56
2022-11-24T13:14:42.495Z,45.73
2022-11-24T13:18:01.125Z,45.87
2022-11-24T13:20:36.316Z,44.53
2022-11-24T13:23:05.200Z,44.38
2022-11-24T13:25:34.480Z,45.01
2022-11-24T13:28:03.286Z,44.34
2022-11-24T13:30:53.348Z,43.68
2022-11-24T13:33:27.107Z,43.10
2022-11-24T13:36:02.460Z,45.23
2022-11-24T13:38:43.734Z,45.46
2022-11-24T13:41:31.602Z,43.90
2022-11-24T13:44:16.269Z,40.98
2022-11-24T13:47:06.107Z,42.62
2022-11-24T13:49:44.231Z,41.98
2022-11-24T13:52:48.072Z,41.84
2022-11-24T13:55:14.468Z,42.52
2022-11-24T13:57:50.760Z,40.32
2022-11-24T14:00:35.185Z,40.09
2022-11-24T14:03:24.609Z,40.54
2022-11-24T14:05:53.071Z,41.19
2022-11-24T14:08:25.958Z,42.30
2022-11-24T14:10:57.660Z,42.79
2022-11-24T14:13:28.054Z,42.72
2022-11-24T14:16:18.244Z,43.35
2022-11-24T14:18:47.647Z,45.05
2022-11-24T14:21:19.786Z,45.79
2022-11-24T14:24:12.436Z,46.33
2022-11-24T14:26:41.018Z,47.31
2022-11-24T14:29:16.671Z,46.83
2022-11-24T14:31:59.302Z,47.17
2022-11-24T14:34:28.798Z,47.12
2022-11-24T14:36:56.921Z,47.45
2022-11-24T14:39:26.224Z,48.72
2022-11-24T14:42:05.460Z,49.49
2022-11-24T14:44:46.544Z,49.83
2022-11-24T14:47:25.743Z,50.39
2022-11-24T14:49:58.063Z,50.91
2022-11-24T14:52:25.982Z,50.96
2022-11-24T14:54:58.999Z,51.17
2022-11-24T14:57:33.711Z,52.11
2022-11-24T15:00:26.069Z,52.84
2022-11-24T15:03:01.484Z,53.30
2022-11-24T15:05:57.065Z,53.50
2022-11-24T15:08:37.307Z,54.04
2022-11-24T15:11:06.778Z,54.44
2022-11-24T15:13:39.959Z,55.64
2022-11-24T15:16:15.850Z,55.80
2022-11-24T15:18:46.348Z,56.21
2022-11-24T15:21:18.896Z,56.47
2022-11-24T15:24:15.150Z,57.40
2022-11-24T15:26:42.367Z,57.02
2022-11-24T15:29:10.446Z,58.15
2022-11-24T15:31:37.830Z,57.88
2022-11-24T15:34:04.369Z,58.70
2022-11-24T15:36:30.967Z,59.02
2022-11-24T15:38:57.452Z,58.86
2022-11-24T15:41:31.126Z,59.87
2022-11-24T15:43:57.665Z,60.07
2022-11-24T15:46:24.723Z,60.46
2022-11-24T15:48:51.218Z,60.91
2022-11-24T15:51:17.800Z,61.12
2022-11-24T15:53:49.847Z,61.50
2022-11-24T15:56:31.019Z,62.40
2022-11-24T15:58:57.549Z,62.61
2022-11-24T16:01:29.883Z,62.45
2022-11-24T16:03:56.385Z,63.01
2022-11-24T16:06:24.948Z,63.10
2022-11-24T16:08:53.428Z,63.05
2022-11-24T16:11:20.535Z,63.50
2022-11-24T16:13:51.914Z,64.25
2022-11-24T16:16:20.913Z,64.92
2022-11-24T16:18:47.433Z,65.28
2022-11-24T16:21:13.919Z,63.97
2022-11-24T16:23:40.626Z,62.86
2022-11-24T16:26:07.435Z,62.08
2022-11-24T16:28:34.580Z,61.24
2022-11-24T16:31:01.417Z,61.08
2022-11-24T16:33:30.661Z,61.90
2022-11-24T16:35:57.123Z,62.61
2022-11-24T16:38:23.590Z,62.57
2022-11-24T16:40:54.917Z,62.89
2022-11-24T16:43:21.685Z,62.45
2022-11-24T16:46:15.271Z,63.81
2022-11-24T16:48:41.901Z,63.61
2022-11-24T16:51:09.827Z,63.10
2022-11-24T16:53:37.153Z,63.88
2022-11-24T16:56:03.797Z,63.58
2022-11-24T16:58:30.240Z,63.11
2022-11-24T17:01:10.696Z,63.17
2022-11-24T17:03:38.440Z,62.72
2022-11-24T17:06:07.388Z,62.51
2022-11-24T17:08:37.377Z,62.17
2022-11-24T17:11:06.650Z,62.11
2022-11-24T17:13:34.123Z,62.93
2022-11-24T17:16:09.059Z,62.96
2022-11-24T17:18:36.234Z,63.62
2022-11-24T17:21:09.218Z,63.67
2022-11-24T17:23:36.135Z,63.53
2022-11-24T17:26:07.319Z,63.91
2022-11-24T17:28:34.991Z,65.56
2022-11-24T17:31:09.457Z,65.95
2022-11-24T17:33:36.405Z,65.70
2022-11-24T17:36:06.121Z,65.79
2022-11-24T17:38:32.992Z,64.74
2022-11-24T17:40:59.632Z,64.26
2022-11-24T17:43:26.105Z,63.03
2022-11-24T17:45:57.209Z,63.32
2022-11-24T17:48:24.106Z,62.82
2022-11-24T17:51:02.649Z,62.56
2022-11-24T17:53:29.933Z,62.66
2022-11-24T17:56:01.002Z,62.24
2022-11-24T17:58:29.107Z,62.54
2022-11-24T18:00:56.008Z,62.39
2022-11-24T18:03:22.882Z,61.54
2022-11-24T18:05:49.389Z,61.33
2022-11-24T18:08:15.869Z,62.07
2022-11-24T18:10:42.360Z,60.65
2022-11-24T18:13:08.842Z,60.90
2022-11-24T18:15:35.441Z,61.66
2022-11-24T18:18:03.012Z,60.79
2022-11-24T18:20:29.755Z,61.16
2022-11-24T18:23:05.657Z,59.96
2022-11-24T18:25:32.517Z,60.01
2022-11-24T18:27:58.984Z,60.78
2022-11-24T18:30:25.438Z,61.43
2022-11-24T18:32:51.904Z,61.59
2022-11-24T18:35:18.377Z,60.88
2022-11-24T18:37:44.827Z,61.27
2022-11-24T18:40:11.390Z,60.91
2022-11-24T18:42:37.866Z,60.84
2022-11-24T18:45:05.241Z,60.65
2022-11-24T18:47:31.699Z,60.27
2022-11-24T18:49:58.155Z,60.21
2022-11-24T18:52:24.648Z,60.31
2022-11-24T18:54:51.256Z,60.42
2022-11-24T18:57:17.688Z,60.19
2022-11-24T18:59:44.153Z,60.33
2022-11-24T19:02:10.632Z,60.22
2022-11-24T19:04:37.323Z,60.28
2022-11-24T19:07:03.927Z,60.38
2022-11-24T19:09:30.360Z,59.80
2022-11-24T19:11:56.841Z,59.85
2022-11-24T19:14:23.370Z,59.81
2022-11-24T19:16:50.183Z,60.17
2022-11-24T19:19:17.680Z,60.20
2022-11-24T19:21:44.681Z,59.70
2022-11-24T19:24:11.866Z,58.57
2022-11-24T19:26:39.454Z,58.19
2022-11-24T19:29:07.008Z,58.94
2022-11-24T19:31:34.872Z,58.71
2022-11-24T19:34:02.062Z,59.19
2022-11-24T19:36:28.549Z,59.08
2022-11-24T19:38:57.391Z,59.00
2022-11-24T19:41:28.699Z,59.44
2022-11-24T19:43:55.613Z,58.88
2022-11-24T19:46:23.858Z,59.04
2022-11-24T19:48:51.092Z,59.82
2022-11-24T19:51:20.929Z,59.14
2022-11-24T19:53:47.933Z,58.19
2022-11-24T19:56:17.493Z,59.03
2022-11-24T19:58:44.478Z,58.97
2022-11-24T20:01:16.740Z,59.32
2022-11-24T20:03:45.285Z,59.96
2022-11-24T20:06:14.073Z,59.32
2022-11-24T20:08:42.279Z,59.14
2022-11-24T20:11:12.111Z,58.58
2022-11-24T20:13:40.676Z,59.60
2022-11-24T20:16:12.428Z,59.08
2022-11-24T20:18:42.148Z,59.28
2022-11-24T20:21:15.083Z,58.89
2022-11-24T20:23:42.187Z,58.90
2022-11-24T20:26:15.880Z,60.07
2022-11-24T20:28:43.056Z,59.79
2022-11-24T20:31:14.765Z,60.01
2022-11-24T20:33:41.907Z,60.48
2022-11-24T20:36:13.359Z,60.66
2022-11-24T20:38:41.988Z,61.27
2022-11-24T20:41:11.416Z,61.19
2022-11-24T20:43:39.367Z,60.80
2022-11-24T20:46:09.473Z,60.51
2022-11-24T20:48:36.709Z,59.88
2022-11-24T20:51:09.258Z,60.59
2022-11-24T20:53:36.788Z,59.33
2022-11-24T20:56:10.550Z,59.84
2022-11-24T20:58:38.448Z,59.84
2022-11-24T21:01:12.592Z,59.50
2022-11-24T21:03:43.264Z,59.75
2022-11-24T21:06:12.153Z,59.38
2022-11-24T21:08:40.960Z,59.66
2022-11-24T21:11:09.996Z,60.46
2022-11-24T21:13:37.871Z,60.52
2022-11-24T21:16:30.419Z,61.00
2022-11-24T21:18:59.786Z,61.58
2022-11-24T21:21:30.676Z,61.27
2022-11-24T21:23:57.185Z,60.98
2022-11-24T21:26:23.692Z,61.08
2022-11-24T21:28:50.183Z,60.64
2022-11-24T21:31:19.334Z,59.93
2022-11-24T21:33:48.562Z,60.02
2022-11-24T21:36:17.403Z,60.05
2022-11-24T21:38:44.323Z,60.29
2022-11-24T21:41:11.968Z,59.92
2022-11-24T21:43:38.442Z,59.67
2022-11-24T21:46:10.417Z,59.40
2022-11-24T21:48:38.222Z,59.56
2022-11-24T21:51:07.294Z,59.72
2022-11-24T21:53:36.211Z,58.59
2022-11-24T21:56:10.543Z,58.77
2022-11-24T21:58:37.007Z,59.07
2022-11-24T22:01:07.751Z,59.44
2022-11-24T22:03:34.768Z,59.39
2022-11-24T22:06:01.756Z,58.95
2022-11-24T22:08:30.936Z,58.89
2022-11-24T22:11:05.968Z,58.87
2022-11-24T22:13:32.579Z,58.87
2022-11-24T22:16:13.825Z,59.82
2022-11-24T22:18:42.172Z,59.43
2022-11-24T22:21:15.249Z,59.19
2022-11-24T22:23:42.796Z,59.59
2022-11-24T22:26:15.332Z,59.26
2022-11-24T22:28:43.265Z,59.44
2022-11-24T22:31:21.654Z,59.52
2022-11-24T22:33:49.809Z,59.38
2022-11-24T22:36:18.249Z,59.34
2022-11-24T22:38:44.748Z,59.16
2022-11-24T22:41:14.657Z,59.76
2022-11-24T22:43:43.626Z,59.65
2022-11-24T22:46:12.657Z,60.50
2022-11-24T22:48:39.729Z,60.76
2022-11-24T22:51:09.621Z,61.30
2022-11-24T22:53:36.158Z,61.61
2022-11-24T22:56:08.080Z,62.23
2022-11-24T22:58:34.576Z,62.19
2022-11-24T23:01:13.591Z,61.65
2022-11-24T23:03:41.075Z,61.58
2022-11-24T23:06:14.634Z,61.50
2022-11-24T23:08:41.554Z,61.93
2022-11-24T23:11:14.689Z,61.62
2022-11-24T23:13:41.698Z,62.15
2022-11-24T23:16:14.550Z,62.37
2022-11-24T23:18:42.237Z,62.32
2022-11-24T23:21:08.651Z,62.12
2022-11-24T23:23:35.280Z,61.46
2022-11-24T23:26:03.917Z,62.42
2022-11-24T23:28:30.916Z,62.17
2022-11-24T23:31:01.338Z,62.10
2022-11-24T23:33:27.919Z,62.27
2022-11-24T23:35:54.395Z,63.17
2022-11-24T23:38:20.857Z,62.49
2022-11-24T23:40:47.343Z,63.34
2022-11-24T23:43:13.791Z,63.33
2022-11-24T23:45:40.291Z,63.01
2022-11-24T23:48:06.804Z,62.67
2022-11-24T23:50:35.156Z,62.78
2022-11-24T23:53:01.739Z,62.23
2022-11-24T23:55:28.180Z,62.07
2022-11-24T23:57:54.636Z,61.93
